createdAt,value
2022-11-05T05:00:33.666Z,2.53
2022-11-05T05:04:45.175Z,3.30
2022-11-05T05:08:56.693Z,3.20
2022-11-05T05:13:11.743Z,3.95
2022-11-05T05:17:23.731Z,5.82
2022-11-05T05:21:41.573Z,5.13
2022-11-05T05:25:53.096Z,4.45
2022-11-05T05:30:05.033Z,4.43
2022-11-05T05:34:16.584Z,9.70
2022-11-05T05:38:29.159Z,5.60
2022-11-05T05:42:43.344Z,4.18
2022-11-05T05:46:55.512Z,5.60
2022-11-05T05:51:11.903Z,5.80
2022-11-05T05:55:23.423Z,6.90
2022-11-05T05:59:34.988Z,6.15
2022-11-05T06:03:50.091Z,6.43
2022-11-05T06:08:01.613Z,6.40
2022-11-05T06:12:13.106Z,14.68
2022-11-05T06:16:24.628Z,7.85
2022-11-05T06:20:36.122Z,6.90
2022-11-05T06:24:47.608Z,5.72
2022-11-05T06:28:59.113Z,6.72
2022-11-05T06:33:10.973Z,9.38
2022-11-05T06:37:22.624Z,6.00
2022-11-05T06:41:45.630Z,5.32
2022-11-05T06:46:06.849Z,5.53
2022-11-05T06:50:18.316Z,5.47
2022-11-05T06:54:29.808Z,5.55
2022-11-05T06:58:41.325Z,6.20
2022-11-05T07:02:52.893Z,5.82
2022-11-05T07:07:04.415Z,6.13
2022-11-05T07:11:16.135Z,5.70
2022-11-05T07:15:27.718Z,5.55
2022-11-05T07:19:39.601Z,8.10
2022-11-05T07:23:51.098Z,6.38
2022-11-05T07:28:03.039Z,8.80
2022-11-05T07:32:14.533Z,7.20
2022-11-05T07:36:26.121Z,6.35
2022-11-05T07:40:37.669Z,7.18
2022-11-05T07:44:49.149Z,6.63
2022-11-05T07:49:00.723Z,8.75
2022-11-05T07:53:15.544Z,7.10
2022-11-05T07:57:27.208Z,8.40
2022-11-05T08:01:38.860Z,7.82
2022-11-05T08:05:50.495Z,6.90
2022-11-05T08:10:04.142Z,7.47
2022-11-05T08:14:15.796Z,6.75
2022-11-05T08:18:34.153Z,7.15
2022-11-05T08:22:46.017Z,7.38
2022-11-05T08:26:57.501Z,6.93
2022-11-05T08:31:09.011Z,7.50
2022-11-05T08:35:20.490Z,7.50
2022-11-05T08:39:32.000Z,7.57
2022-11-05T08:43:43.497Z,8.63
2022-11-05T08:47:59.359Z,7.75
2022-11-05T08:52:10.855Z,7.70
2022-11-05T08:56:23.879Z,8.85
2022-11-05T09:00:37.118Z,7.15
2022-11-05T09:04:48.625Z,7.15
2022-11-05T09:09:00.246Z,7.18
2022-11-05T09:13:18.387Z,6.90
2022-11-05T09:17:31.219Z,7.70
2022-11-05T09:21:43.658Z,7.18
2022-11-05T09:25:55.800Z,7.50
2022-11-05T09:30:07.971Z,7.22
2022-11-05T09:34:19.444Z,7.43
2022-11-05T09:38:32.411Z,7.05
2022-11-05T09:42:46.882Z,7.30
2022-11-05T09:47:02.034Z,6.95
2022-11-05T09:51:20.748Z,6.88
2022-11-05T09:55:39.015Z,7.00
2022-11-05T09:59:56.946Z,8.13
2022-11-05T10:04:31.143Z,7.05
2022-11-05T10:08:47.159Z,7.53
2022-11-05T10:13:25.371Z,7.68
2022-11-05T10:17:41.631Z,7.75
2022-11-05T10:22:09.016Z,7.55
2022-11-05T10:26:24.112Z,7.05
2022-11-05T10:30:35.785Z,7.72
2022-11-05T10:34:47.374Z,8.10
2022-11-05T10:39:06.364Z,7.82
2022-11-05T10:43:46.111Z,8.73
2022-11-05T10:48:50.730Z,9.10
2022-11-05T10:53:26.725Z,9.35
2022-11-05T10:57:41.079Z,9.30
2022-11-05T11:01:59.520Z,9.80
2022-11-05T11:06:25.149Z,10.05
2022-11-05T11:11:05.264Z,10.05
2022-11-05T11:15:25.959Z,9.98
2022-11-05T11:19:37.446Z,9.65
2022-11-05T11:23:57.893Z,9.63
2022-11-05T11:28:19.970Z,10.57
2022-11-05T11:32:39.137Z,16.65
2022-11-05T11:36:56.551Z,11.20
2022-11-05T11:41:17.000Z,11.15
2022-11-05T11:45:46.412Z,16.13
2022-11-05T11:49:59.504Z,9.98
2022-11-05T11:54:20.492Z,9.95
2022-11-05T11:58:39.140Z,9.77
2022-11-05T12:03:20.358Z,9.63
2022-11-05T12:08:08.866Z,10.05
2022-11-05T12:12:46.446Z,9.38
2022-11-05T12:17:10.845Z,7.30
2022-11-05T12:21:53.310Z,9.88
2022-11-05T12:26:43.079Z,9.07
2022-11-05T12:31:28.141Z,7.53
2022-11-05T12:36:07.582Z,6.75
2022-11-05T12:40:50.330Z,6.25
2022-11-05T12:45:21.956Z,6.95
2022-11-05T12:49:59.894Z,6.55
2022-11-05T12:54:30.011Z,6.90
2022-11-05T12:58:46.839Z,6.32
2022-11-05T13:03:07.354Z,5.57
2022-11-05T13:07:36.000Z,5.95
2022-11-05T13:11:53.456Z,6.18
2022-11-05T13:16:19.596Z,6.50
2022-11-05T13:20:36.218Z,6.65
2022-11-05T13:24:56.797Z,6.82
2022-11-05T13:29:15.463Z,6.70
2022-11-05T13:33:40.820Z,5.85
2022-11-05T13:38:15.851Z,5.50
2022-11-05T13:42:52.197Z,5.40
2022-11-05T13:47:22.190Z,6.25
2022-11-05T13:51:42.936Z,6.28
2022-11-05T13:56:32.111Z,4.63
2022-11-05T14:01:18.908Z,4.00
2022-11-05T14:05:38.236Z,4.47
2022-11-05T14:09:56.755Z,4.30
2022-11-05T14:14:23.596Z,3.97
2022-11-05T14:19:07.415Z,3.75
2022-11-05T14:23:24.703Z,3.55
2022-11-05T14:27:36.141Z,3.50
2022-11-05T14:32:12.579Z,3.28
2022-11-05T14:36:36.453Z,3.10
2022-11-05T14:40:49.615Z,3.08
2022-11-05T14:45:21.531Z,4.40
2022-11-05T14:49:37.257Z,5.60
2022-11-05T14:53:48.905Z,4.22
2022-11-05T14:58:04.098Z,3.97
2022-11-05T15:02:19.780Z,5.63
2022-11-05T15:06:36.700Z,5.10
2022-11-05T15:10:49.069Z,5.32
2022-11-05T15:15:04.870Z,5.28
2022-11-05T15:19:34.609Z,5.80
2022-11-05T15:23:48.887Z,6.00
2022-11-05T15:28:06.117Z,7.13
2022-11-05T15:32:22.834Z,6.90
2022-11-05T15:36:34.517Z,8.20
2022-11-05T15:40:46.067Z,6.95
2022-11-05T15:44:59.439Z,7.00
2022-11-05T15:49:19.499Z,6.47
2022-11-05T15:54:24.385Z,5.53
2022-11-05T15:58:30.455Z,5.63
2022-11-05T16:02:42.184Z,5.50
2022-11-05T16:06:57.158Z,5.22
2022-11-05T16:11:08.649Z,5.20
2022-11-05T16:15:25.862Z,5.00
2022-11-05T16:19:41.340Z,5.15
2022-11-05T16:23:58.560Z,6.93
2022-11-05T16:28:27.788Z,6.22
2022-11-05T16:32:39.268Z,7.50
2022-11-05T16:36:50.799Z,6.95
2022-11-05T16:41:02.446Z,7.38
2022-11-05T16:45:15.540Z,6.53
2022-11-05T16:49:27.082Z,8.18
2022-11-05T16:53:38.872Z,8.90
2022-11-05T16:57:55.316Z,9.13
2022-11-05T17:02:10.936Z,6.97
2022-11-05T17:06:23.275Z,5.72
2022-11-05T17:10:35.470Z,6.10
2022-11-05T17:14:46.976Z,5.28
2022-11-05T17:18:58.447Z,6.82
2022-11-05T17:23:12.931Z,5.25
2022-11-05T17:27:24.716Z,5.13
2022-11-05T17:31:36.492Z,5.82
2022-11-05T17:35:48.233Z,5.45
2022-11-05T17:40:00.794Z,6.25
2022-11-05T17:44:12.368Z,6.57
2022-11-05T17:48:23.881Z,6.72
2022-11-05T17:52:35.407Z,6.20
2022-11-05T17:56:46.958Z,6.22
2022-11-05T18:00:58.463Z,7.18
2022-11-05T18:05:10.156Z,7.60
2022-11-05T18:09:21.688Z,8.60
2022-11-05T18:13:33.190Z,7.28
2022-11-05T18:17:46.205Z,7.95
2022-11-05T18:21:57.738Z,7.50
2022-11-05T18:26:14.401Z,8.70
2022-11-05T18:30:25.885Z,11.73
2022-11-05T18:34:37.840Z,11.48
2022-11-05T18:38:49.799Z,8.07
2022-11-05T18:43:01.277Z,6.45
2022-11-05T18:47:12.805Z,8.57
2022-11-05T18:51:25.108Z,6.65
2022-11-05T18:55:39.227Z,7.68
2022-11-05T18:59:50.724Z,6.93
2022-11-05T19:04:02.244Z,7.60
2022-11-05T19:08:14.129Z,6.22
2022-11-05T19:12:25.857Z,6.55
2022-11-05T19:16:37.658Z,5.80
2022-11-05T19:20:49.181Z,5.35
2022-11-05T19:25:00.730Z,4.88
2022-11-05T19:29:12.417Z,5.10
2022-11-05T19:33:23.900Z,6.80
2022-11-05T19:37:35.436Z,7.63
2022-11-05T19:41:48.928Z,9.45
2022-11-05T19:46:00.767Z,8.05
2022-11-05T19:50:12.863Z,7.35
2022-11-05T19:54:24.382Z,6.47
2022-11-05T19:58:36.111Z,7.22
2022-11-05T20:02:47.777Z,7.88
2022-11-05T20:06:59.411Z,7.35
2022-11-05T20:11:11.659Z,7.60
2022-11-05T20:15:23.136Z,7.88
2022-11-05T20:19:35.353Z,7.18
2022-11-05T20:23:47.183Z,6.43
2022-11-05T20:27:58.664Z,6.18
2022-11-05T20:32:12.308Z,7.22
2022-11-05T20:36:25.591Z,5.93
2022-11-05T20:40:39.646Z,6.47
2022-11-05T20:44:51.228Z,7.90
2022-11-05T20:49:02.773Z,6.00
2022-11-05T20:53:14.383Z,6.55
2022-11-05T20:57:25.868Z,6.53
2022-11-05T21:01:37.472Z,6.00
2022-11-05T21:05:52.103Z,5.38
2022-11-05T21:10:04.884Z,5.65
2022-11-05T21:14:16.404Z,4.60
2022-11-05T21:18:30.605Z,5.70
2022-11-05T21:22:45.221Z,5.70
2022-11-05T21:26:56.760Z,6.07
2022-11-05T21:31:09.323Z,5.97
2022-11-05T21:35:21.156Z,5.50
2022-11-05T21:39:36.008Z,5.72
2022-11-05T21:43:47.493Z,5.25
2022-11-05T21:47:59.103Z,4.40
2022-11-05T21:52:30.355Z,5.10
2022-11-05T21:57:04.225Z,4.30
2022-11-05T22:01:18.627Z,4.53
2022-11-05T22:05:30.295Z,4.28
2022-11-05T22:09:43.116Z,4.05
2022-11-05T22:13:54.616Z,4.35
2022-11-05T22:18:06.106Z,4.10
2022-11-05T22:22:17.625Z,4.22
2022-11-05T22:26:29.141Z,4.03
